sensor_id;sensor_type;location;lat;lon;timestamp;temperature;humidity
23130;DHT22;11734;51.046;13.778;2022-08-20T00:33:46;20.70;99.90
23130;DHT22;11734;51.046;13.778;2022-08-20T01:49:44;20.00;99.90
23130;DHT22;11734;51.046;13.778;2022-08-20T01:52:23;19.80;99.90
23130;DHT22;11734;51.046;13.778;2022-08-20T01:54:51;19.80;99.90
23130;DHT22;11734;51.046;13.778;2022-08-20T01:57:20;19.80;99.90
23130;DHT22;11734;51.046;13.778;2022-08-20T01:59:53;19.80;99.90
23130;DHT22;11734;51.046;13.778;2022-08-20T02:02:21;19.70;99.90
23130;DHT22;11734;51.046;13.778;2022-08-20T02:04:51;19.70;99.90
23130;DHT22;11734;51.046;13.778;2022-08-20T02:07:21;19.70;99.90
23130;DHT22;11734;51.046;13.778;2022-08-20T02:09:50;19.40;99.90
23130;DHT22;11734;51.046;13.778;2022-08-20T02:12:18;19.60;99.90
23130;DHT22;11734;51.046;13.778;2022-08-20T02:14:49;19.50;99.90
23130;DHT22;11734;51.046;13.778;2022-08-20T02:17:20;19.50;99.90
23130;DHT22;11734;51.046;13.778;2022-08-20T02:20:15;19.70;99.90
23130;DHT22;11734;51.046;13.778;2022-08-20T02:22:48;19.40;99.90
23130;DHT22;11734;51.046;13.778;2022-08-20T02:25:22;19.30;99.90
23130;DHT22;11734;51.046;13.778;2022-08-20T02:27:53;19.30;99.90
23130;DHT22;11734;51.046;13.778;2022-08-20T02:30:26;19.20;99.90
23130;DHT22;11734;51.046;13.778;2022-08-20T02:32:57;19.20;99.90
23130;DHT22;11734;51.046;13.778;2022-08-20T02:35:26;19.20;99.90
23130;DHT22;11734;51.046;13.778;2022-08-20T02:37:54;19.20;99.90
23130;DHT22;11734;51.046;13.778;2022-08-20T02:40:24;19.10;99.90
23130;DHT22;11734;51.046;13.778;2022-08-20T02:42:58;19.10;99.90
23130;DHT22;11734;51.046;13.778;2022-08-20T02:45:26;19.00;99.90
23130;DHT22;11734;51.046;13.778;2022-08-20T02:47:54;19.00;99.90
23130;DHT22;11734;51.046;13.778;2022-08-20T02:50:24;19.00;99.90
23130;DHT22;11734;51.046;13.778;2022-08-20T02:52:52;18.90;99.90
23130;DHT22;11734;51.046;13.778;2022-08-20T02:57:58;18.80;99.90
23130;DHT22;11734;51.046;13.778;2022-08-20T03:00:29;18.90;99.90
23130;DHT22;11734;51.046;13.778;2022-08-20T03:03:06;18.80;99.90
23130;DHT22;11734;51.046;13.778;2022-08-20T03:08:08;18.80;99.90
23130;DHT22;11734;51.046;13.778;2022-08-20T03:10:39;18.80;99.90
23130;DHT22;11734;51.046;13.778;2022-08-20T03:13:07;18.70;99.90
23130;DHT22;11734;51.046;13.778;2022-08-20T03:15:42;18.70;99.90
23130;DHT22;11734;51.046;13.778;2022-08-20T03:18:13;18.50;99.90
23130;DHT22;11734;51.046;13.778;2022-08-20T03:20:41;18.70;99.90
23130;DHT22;11734;51.046;13.778;2022-08-20T03:23:12;18.70;99.90
23130;DHT22;11734;51.046;13.778;2022-08-20T03:25:40;18.70;99.90
23130;DHT22;11734;51.046;13.778;2022-08-20T03:28:08;18.60;99.90
23130;DHT22;11734;51.046;13.778;2022-08-20T03:30:36;18.70;99.90
23130;DHT22;11734;51.046;13.778;2022-08-20T03:33:04;18.60;99.90
23130;DHT22;11734;51.046;13.778;2022-08-20T03:35:33;18.60;99.90
